PWSweather.com
Personal Weather Stations
Station Observations
KFLPOINC2
Poinciana Kissimmee, Poinciana, FL 34758

Poinciana KissimmeePoinciana, FL 34758

Lat: 28.161417, Lon: -81.477557

Elevation: 79

Station Type: Ambient Weather WS 2080

Latest ConditionsUpdated 6:30:03 PM EST Saturday, Feb 13, 2016
Currently Today's Max Today's Min Today's Average
Temperature 71.2°F21.8°C 72.0°F22.2°C 50.7°F10.4°C 61.8°F16.6°C
Dew Point 38.2°F3.4°C 60.9°F16.1°C 37.1°F2.8°C 48.2°F9.0°C
Winds 5.4 mph SE8.7 kmh SE 6.9 mph SE11.1 kmh SE - 2.4 mph 3.9 kmh
Wind Gusts 10.7 mph17.2 kmh 13.6 mph21.9 kmh - -
Humidity 30% 99% 28% 69%
Pressure 29.92 in1013.2 mb 29.92 in1013.2 mb 29.92 in1013.2 mb -
Hour Temp Dew Point Humidity Winds Wind Gusts Pressure Precip Precip Rate Daily Precip Total
06:30 PM 71.2°F21.8°C 38.2°F3.4°C 30% 5.4 mph SE8.7 kmh SE 10.7 mph17.2 kmh 29.92 in1013.2 mb 0.00 in0.0 mm 0.00 in0.0 mm 0.00 in0.0 mm
06:15 PM 71.2°F21.8°C 38.2°F3.4°C 30% 5.4 mph SE8.7 kmh SE 10.7 mph17.2 kmh 29.92 in1013.2 mb 0.00 in0.0 mm 0.00 in0.0 mm 0.00 in0.0 mm
06:00 PM 71.2°F21.8°C 38.2°F3.4°C 30% 5.4 mph SE8.7 kmh SE 10.7 mph17.2 kmh 29.92 in1013.2 mb 0.00 in0.0 mm 0.00 in0.0 mm 0.00 in0.0 mm
05:45 PM 71.2°F21.8°C 38.2°F3.4°C 30% 5.4 mph SE8.7 kmh SE 10.7 mph17.2 kmh 29.92 in1013.2 mb 0.00 in0.0 mm 0.00 in0.0 mm 0.00 in0.0 mm
05:30 PM 71.2°F21.8°C 38.2°F3.4°C 30% 5.4 mph SE8.7 kmh SE 10.7 mph17.2 kmh 29.92 in1013.2 mb 0.00 in0.0 mm 0.00 in0.0 mm 0.00 in0.0 mm
05:15 PM 71.2°F21.8°C 38.2°F3.4°C 30% 5.4 mph SE8.7 kmh SE 10.7 mph17.2 kmh 29.92 in1013.2 mb 0.00 in0.0 mm 0.00 in0.0 mm 0.00 in0.0 mm
05:00 PM 71.2°F21.8°C 38.2°F3.4°C 30% 5.4 mph SE8.7 kmh SE 10.7 mph17.2 kmh 29.92 in1013.2 mb 0.00 in0.0 mm 0.00 in0.0 mm 0.00 in0.0 mm
04:45 PM 71.2°F21.8°C 38.2°F3.4°C 30% 5.4 mph SE8.7 kmh SE 10.7 mph17.2 kmh 29.92 in1013.2 mb 0.00 in0.0 mm 0.00 in0.0 mm 0.00 in0.0 mm
04:30 PM 71.2°F21.8°C 38.2°F3.4°C 30% 5.4 mph SE8.7 kmh SE 10.7 mph17.2 kmh 29.92 in1013.2 mb 0.00 in0.0 mm 0.00 in0.0 mm 0.00 in0.0 mm
04:15 PM 71.4°F21.9°C 40.1°F4.5°C 32% 3.8 mph SE6.1 kmh SE 7.6 mph12.2 kmh 29.92 in1013.2 mb 0.00 in0.0 mm 0.00 in0.0 mm 0.00 in0.0 mm
04:00 PM 71.4°F21.9°C 40.1°F4.5°C 32% 3.8 mph SE6.1 kmh SE 10.7 mph17.2 kmh 29.92 in1013.2 mb 0.00 in0.0 mm 0.00 in0.0 mm 0.00 in0.0 mm
03:45 PM 71.4°F21.9°C 40.1°F4.5°C 32% 2.2 mph SE3.5 kmh SE 9.8 mph15.8 kmh 29.92 in1013.2 mb 0.00 in0.0 mm 0.00 in0.0 mm 0.00 in0.0 mm
03:30 PM 71.4°F21.9°C 39.2°F4.0°C 31% 2.2 mph SE3.5 kmh SE 9.2 mph14.8 kmh 29.92 in1013.2 mb 0.00 in0.0 mm 0.00 in0.0 mm 0.00 in0.0 mm
03:15 PM 71.2°F21.8°C 39.1°F3.9°C 31% 2.2 mph SE3.5 kmh SE 12.1 mph19.5 kmh 29.92 in1013.2 mb 0.00 in0.0 mm 0.00 in0.0 mm 0.00 in0.0 mm
03:00 PM 72.0°F22.2°C 37.1°F2.8°C 28% 4.5 mph SE7.2 kmh SE 10.7 mph17.2 kmh 29.92 in1013.2 mb 0.00 in0.0 mm 0.00 in0.0 mm 0.00 in0.0 mm
02:45 PM 71.6°F22.0°C 37.7°F3.2°C 29% 6.0 mph SE9.7 kmh SE 13.6 mph21.9 kmh 29.92 in1013.2 mb 0.00 in0.0 mm 0.00 in0.0 mm 0.00 in0.0 mm
02:30 PM 71.4°F21.9°C 39.2°F4.0°C 31% 3.8 mph SE6.1 kmh SE 12.1 mph19.5 kmh 29.92 in1013.2 mb 0.00 in0.0 mm 0.00 in0.0 mm 0.00 in0.0 mm
02:15 PM 71.8°F22.1°C 37.8°F3.2°C 29% 6.0 mph SE9.7 kmh SE 10.7 mph17.2 kmh 29.92 in1013.2 mb 0.00 in0.0 mm 0.00 in0.0 mm 0.00 in0.0 mm
02:00 PM 71.4°F21.9°C 40.1°F4.5°C 32% 5.4 mph SE8.7 kmh SE 10.7 mph17.2 kmh 29.92 in1013.2 mb 0.00 in0.0 mm 0.00 in0.0 mm 0.00 in0.0 mm
01:45 PM 71.6°F22.0°C 44.7°F7.1°C 38% 5.4 mph SE8.7 kmh SE 9.2 mph14.8 kmh 29.92 in1013.2 mb 0.00 in0.0 mm 0.00 in0.0 mm 0.00 in0.0 mm
01:30 PM 71.1°F21.7°C 44.9°F7.2°C 39% 2.2 mph SE3.5 kmh SE 8.3 mph13.4 kmh 29.92 in1013.2 mb 0.00 in0.0 mm 0.00 in0.0 mm 0.00 in0.0 mm
01:15 PM 70.7°F21.5°C 45.2°F7.3°C 40% 1.6 mph SE2.6 kmh SE 9.8 mph15.8 kmh 29.92 in1013.2 mb 0.00 in0.0 mm 0.00 in0.0 mm 0.00 in0.0 mm
01:00 PM 71.1°F21.7°C 46.2°F7.9°C 41% 4.5 mph SE7.2 kmh SE 8.3 mph13.4 kmh 29.92 in1013.2 mb 0.00 in0.0 mm 0.00 in0.0 mm 0.00 in0.0 mm
12:45 PM 70.3°F21.3°C 46.2°F7.9°C 42% 2.2 mph SE3.5 kmh SE 10.7 mph17.2 kmh 29.92 in1013.2 mb 0.00 in0.0 mm 0.00 in0.0 mm 0.00 in0.0 mm
12:30 PM 69.4°F20.8°C 45.4°F7.4°C 42% 3.1 mph SE5.0 kmh SE 10.7 mph17.2 kmh 29.92 in1013.2 mb 0.00 in0.0 mm 0.00 in0.0 mm 0.00 in0.0 mm
12:15 PM 69.1°F20.6°C 45.7°F7.6°C 43% 6.9 mph SE11.1 kmh SE 9.8 mph15.8 kmh 29.92 in1013.2 mb 0.00 in0.0 mm 0.00 in0.0 mm 0.00 in0.0 mm
12:00 PM 69.6°F20.9°C 46.8°F8.2°C 44% 4.5 mph SE7.2 kmh SE 7.6 mph12.2 kmh 29.92 in1013.2 mb 0.00 in0.0 mm 0.00 in0.0 mm 0.00 in0.0 mm
11:45 AM 68.5°F20.3°C 45.8°F7.7°C 44% 3.1 mph SE5.0 kmh SE 12.1 mph19.5 kmh 29.92 in1013.2 mb 0.00 in0.0 mm 0.00 in0.0 mm 0.00 in0.0 mm
11:30 AM 69.6°F20.9°C 49.1°F9.5°C 48% 5.4 mph SE8.7 kmh SE 9.8 mph15.8 kmh 29.92 in1013.2 mb 0.00 in0.0 mm 0.00 in0.0 mm 0.00 in0.0 mm
11:15 AM 69.1°F20.6°C 49.7°F9.8°C 50% 6.0 mph SE9.7 kmh SE 10.7 mph17.2 kmh 29.92 in1013.2 mb 0.00 in0.0 mm 0.00 in0.0 mm 0.00 in0.0 mm
11:00 AM 68.2°F20.1°C 48.3°F9.1°C 49% 5.4 mph SE8.7 kmh SE 11.4 mph18.3 kmh 29.92 in1013.2 mb 0.00 in0.0 mm 0.00 in0.0 mm 0.00 in0.0 mm
10:45 AM 67.6°F19.8°C 49.4°F9.7°C 52% 4.5 mph SE7.2 kmh SE 9.8 mph15.8 kmh 29.92 in1013.2 mb 0.00 in0.0 mm 0.00 in0.0 mm 0.00 in0.0 mm
10:30 AM 67.3°F19.6°C 49.1°F9.5°C 52% 6.0 mph SE9.7 kmh SE 13.6 mph21.9 kmh 29.92 in1013.2 mb 0.00 in0.0 mm 0.00 in0.0 mm 0.00 in0.0 mm
10:15 AM 66.4°F19.1°C 50.2°F10.1°C 56% 4.5 mph SE7.2 kmh SE 10.7 mph17.2 kmh 29.92 in1013.2 mb 0.00 in0.0 mm 0.00 in0.0 mm 0.00 in0.0 mm
10:00 AM 65.7°F18.7°C 52.7°F11.5°C 63% 3.8 mph SE6.1 kmh SE 10.7 mph17.2 kmh 29.92 in1013.2 mb 0.00 in0.0 mm 0.00 in0.0 mm 0.00 in0.0 mm
09:45 AM 65.3°F18.5°C 56.1°F13.4°C 72% 3.1 mph SE5.0 kmh SE 11.4 mph18.3 kmh 29.92 in1013.2 mb 0.00 in0.0 mm 0.00 in0.0 mm 0.00 in0.0 mm
09:30 AM 64.2°F17.9°C 56.5°F13.6°C 76% 2.2 mph SE3.5 kmh SE 11.4 mph18.3 kmh 29.92 in1013.2 mb 0.00 in0.0 mm 0.00 in0.0 mm 0.00 in0.0 mm
09:15 AM 63.3°F17.4°C 58.8°F14.9°C 85% 4.5 mph SE7.2 kmh SE 9.2 mph14.8 kmh 29.92 in1013.2 mb 0.00 in0.0 mm 0.00 in0.0 mm 0.00 in0.0 mm
09:00 AM 62.1°F16.7°C 60.9°F16.1°C 96% 3.8 mph SE6.1 kmh SE 8.3 mph13.4 kmh 29.92 in1013.2 mb 0.00 in0.0 mm 0.00 in0.0 mm 0.00 in0.0 mm
08:45 AM 61.3°F16.3°C 60.8°F16.0°C 98% 1.6 mph SE2.6 kmh SE 6.9 mph11.1 kmh 29.92 in1013.2 mb 0.00 in0.0 mm 0.00 in0.0 mm 0.00 in0.0 mm
08:30 AM 60.3°F15.7°C 60.0°F15.6°C 99% 4.5 mph SE7.2 kmh SE 6.9 mph11.1 kmh 29.92 in1013.2 mb 0.00 in0.0 mm 0.00 in0.0 mm 0.00 in0.0 mm
08:15 AM 58.8°F14.9°C 58.6°F14.8°C 99% 0.7 mph SE1.1 kmh SE 3.1 mph5.0 kmh 29.92 in1013.2 mb 0.00 in0.0 mm 0.00 in0.0 mm 0.00 in0.0 mm
08:00 AM 57.4°F14.1°C 57.1°F13.9°C 99% Calm Calm 2.2 mph3.5 kmh 29.92 in1013.2 mb 0.00 in0.0 mm 0.00 in0.0 mm 0.00 in0.0 mm
07:45 AM 55.6°F13.1°C 55.3°F12.9°C 99% Calm Calm -- 29.92 in1013.2 mb 0.00 in0.0 mm 0.00 in0.0 mm 0.00 in0.0 mm
07:30 AM 54.3°F12.4°C 53.5°F11.9°C 97% Calm Calm -- 29.92 in1013.2 mb 0.00 in0.0 mm 0.00 in0.0 mm 0.00 in0.0 mm
07:15 AM 53.8°F12.1°C 53.0°F11.7°C 97% Calm Calm -- 29.92 in1013.2 mb 0.00 in0.0 mm 0.00 in0.0 mm 0.00 in0.0 mm
07:00 AM 53.8°F12.1°C 53.0°F11.7°C 97% Calm Calm -- 29.92 in1013.2 mb 0.00 in0.0 mm 0.00 in0.0 mm 0.00 in0.0 mm
06:45 AM 53.4°F11.9°C 52.9°F11.6°C 98% Calm Calm -- 29.92 in1013.2 mb 0.00 in0.0 mm 0.00 in0.0 mm 0.00 in0.0 mm
06:30 AM 52.5°F11.4°C 52.0°F11.1°C 98% Calm Calm -- 29.92 in1013.2 mb 0.00 in0.0 mm 0.00 in0.0 mm 0.00 in0.0 mm
06:15 AM 52.2°F11.2°C 51.6°F10.9°C 98% Calm Calm -- 29.92 in1013.2 mb 0.00 in0.0 mm 0.00 in0.0 mm 0.00 in0.0 mm
06:00 AM 51.3°F10.7°C 51.0°F10.6°C 99% Calm Calm -- 29.92 in1013.2 mb 0.00 in0.0 mm 0.00 in0.0 mm 0.00 in0.0 mm
05:45 AM 50.7°F10.4°C 50.5°F10.3°C 99% Calm Calm -- 29.92 in1013.2 mb 0.00 in0.0 mm 0.00 in0.0 mm 0.00 in0.0 mm
05:30 AM 50.7°F10.4°C 50.5°F10.3°C 99% Calm Calm -- 29.92 in1013.2 mb 0.00 in0.0 mm 0.00 in0.0 mm 0.00 in0.0 mm
05:15 AM 50.7°F10.4°C 50.5°F10.3°C 99% Calm Calm -- 29.92 in1013.2 mb 0.00 in0.0 mm 0.00 in0.0 mm 0.00 in0.0 mm
05:00 AM 50.7°F10.4°C 50.5°F10.3°C 99% Calm Calm -- 29.92 in1013.2 mb 0.00 in0.0 mm 0.00 in0.0 mm 0.00 in0.0 mm
04:45 AM 51.1°F10.6°C 50.8°F10.4°C 99% Calm Calm -- 29.92 in1013.2 mb 0.00 in0.0 mm 0.00 in0.0 mm 0.00 in0.0 mm
04:30 AM 51.1°F10.6°C 50.8°F10.4°C 99% Calm Calm -- 29.92 in1013.2 mb 0.00 in0.0 mm 0.00 in0.0 mm 0.00 in0.0 mm
04:15 AM 51.1°F10.6°C 50.8°F10.4°C 99% Calm Calm -- 29.92 in1013.2 mb 0.00 in0.0 mm 0.00 in0.0 mm 0.00 in0.0 mm
04:00 AM 51.4°F10.8°C 51.2°F10.7°C 99% Calm Calm -- 29.92 in1013.2 mb 0.00 in0.0 mm 0.00 in0.0 mm 0.00 in0.0 mm
03:45 AM 51.3°F10.7°C 51.0°F10.6°C 99% Calm Calm -- 29.92 in1013.2 mb 0.00 in0.0 mm 0.00 in0.0 mm 0.00 in0.0 mm
03:30 AM 51.3°F10.7°C 51.0°F10.6°C 99% Calm Calm -- 29.92 in1013.2 mb 0.00 in0.0 mm 0.00 in0.0 mm 0.00 in0.0 mm
03:15 AM 51.6°F10.9°C 51.4°F10.8°C 99% Calm Calm -- 29.92 in1013.2 mb 0.00 in0.0 mm 0.00 in0.0 mm 0.00 in0.0 mm
03:00 AM 51.6°F10.9°C 51.4°F10.8°C 99% Calm Calm -- 29.92 in1013.2 mb 0.00 in0.0 mm 0.00 in0.0 mm 0.00 in0.0 mm
02:45 AM 51.6°F10.9°C 51.1°F10.6°C 98% Calm Calm -- 29.92 in1013.2 mb 0.00 in0.0 mm 0.00 in0.0 mm 0.00 in0.0 mm
02:30 AM 51.8°F11.0°C 51.0°F10.6°C 97% Calm Calm -- 29.92 in1013.2 mb 0.00 in0.0 mm 0.00 in0.0 mm 0.00 in0.0 mm
02:15 AM 52.0°F11.1°C 50.9°F10.5°C 96% Calm Calm -- 29.92 in1013.2 mb 0.00 in0.0 mm 0.00 in0.0 mm 0.00 in0.0 mm
02:00 AM 52.3°F11.3°C 51.2°F10.7°C 96% Calm Calm -- 29.92 in1013.2 mb 0.00 in0.0 mm 0.00 in0.0 mm 0.00 in0.0 mm
01:45 AM 52.3°F11.3°C 51.0°F10.6°C 95% Calm Calm -- 29.92 in1013.2 mb 0.00 in0.0 mm 0.00 in0.0 mm 0.00 in0.0 mm
01:30 AM 52.0°F11.1°C 50.3°F10.2°C 94% Calm Calm -- 29.92 in1013.2 mb 0.00 in0.0 mm 0.00 in0.0 mm 0.00 in0.0 mm
01:15 AM 52.7°F11.5°C 51.0°F10.6°C 94% Calm Calm -- 29.92 in1013.2 mb 0.00 in0.0 mm 0.00 in0.0 mm 0.00 in0.0 mm
01:00 AM 53.6°F12.0°C 51.6°F10.9°C 93% Calm Calm -- 29.92 in1013.2 mb 0.00 in0.0 mm 0.00 in0.0 mm 0.00 in0.0 mm
12:45 AM 54.0°F12.2°C 51.7°F10.9°C 92% Calm Calm -- 29.92 in1013.2 mb 0.00 in0.0 mm 0.00 in0.0 mm 0.00 in0.0 mm
12:30 AM 54.7°F12.6°C 52.4°F11.3°C 92% Calm Calm -- 29.92 in1013.2 mb 0.00 in0.0 mm 0.00 in0.0 mm 0.00 in0.0 mm
12:15 AM 55.0°F12.8°C 52.8°F11.6°C 92% Calm Calm 1.6 mph2.6 kmh 29.92 in1013.2 mb 0.00 in0.0 mm 0.00 in0.0 mm 0.00 in0.0 mm
12:00 AM 55.4°F13.0°C 52.8°F11.6°C 91% Calm Calm -- 29.92 in1013.2 mb 0.00 in0.0 mm 0.00 in0.0 mm 0.00 in0.0 mm